createdAt,value
2018-04-18T00:02:22.061Z,11.20
2018-04-18T00:04:50.554Z,11.11
2018-04-18T00:07:19.733Z,11.04
2018-04-18T00:09:48.201Z,11.00
2018-04-18T00:12:16.636Z,10.88
2018-04-18T00:14:45.793Z,10.85
2018-04-18T00:17:14.196Z,10.83
2018-04-18T00:19:42.582Z,10.85
2018-04-18T00:22:11.041Z,10.86
2018-04-18T00:24:39.434Z,10.83
2018-04-18T00:27:07.840Z,10.86
2018-04-18T00:29:36.214Z,10.85
2018-04-18T00:32:04.598Z,10.89
2018-04-18T00:34:33.006Z,10.78
2018-04-18T00:37:02.187Z,10.73
2018-04-18T00:39:30.569Z,10.72
2018-04-18T00:41:59.001Z,10.71
2018-04-18T00:44:27.401Z,10.73
2018-04-18T00:46:55.786Z,10.73
2018-04-18T00:49:24.172Z,10.69
2018-04-18T00:51:52.569Z,10.84
2018-04-18T00:54:20.975Z,10.98
2018-04-18T00:56:50.153Z,11.01
2018-04-18T00:59:18.545Z,11.08
2018-04-18T01:01:46.958Z,11.08
2018-04-18T01:04:16.225Z,10.91
2018-04-18T01:06:44.633Z,10.82
2018-04-18T01:09:13.785Z,10.87
2018-04-18T01:11:42.181Z,10.88
2018-04-18T01:14:10.578Z,10.78
2018-04-18T01:16:39.058Z,10.72
2018-04-18T01:19:07.509Z,10.65
2018-04-18T01:21:35.901Z,10.53
2018-04-18T01:24:04.287Z,10.38
2018-04-18T01:26:33.607Z,10.29
2018-04-18T01:29:01.982Z,10.17
2018-04-18T01:31:30.381Z,10.14
2018-04-18T01:33:58.786Z,10.09
2018-04-18T01:36:27.190Z,10.15
2018-04-18T01:38:55.614Z,10.11
2018-04-18T01:41:23.989Z,10.09
2018-04-18T01:43:53.241Z,10.05
2018-04-18T01:46:22.471Z,10.04
2018-04-18T01:48:50.864Z,10.08
2018-04-18T01:51:19.262Z,10.10
2018-04-18T01:53:47.677Z,10.14
2018-04-18T01:56:16.091Z,10.10
2018-04-18T01:58:45.261Z,10.15
2018-04-18T02:01:13.662Z,10.12
2018-04-18T02:03:42.794Z,10.17
2018-04-18T02:06:11.189Z,9.99
2018-04-18T02:08:39.641Z,9.92
2018-04-18T02:11:08.789Z,9.89
2018-04-18T02:13:37.162Z,9.81
2018-04-18T02:16:05.528Z,9.73
2018-04-18T02:18:33.933Z,9.68
2018-04-18T02:21:02.334Z,9.64
2018-04-18T02:23:30.725Z,9.63
2018-04-18T02:25:59.126Z,9.70
2018-04-18T02:28:27.553Z,9.83
2018-04-18T02:30:55.922Z,9.81
2018-04-18T02:33:24.277Z,9.76
2018-04-18T02:35:53.474Z,9.70
2018-04-18T02:38:21.859Z,9.60
2018-04-18T02:40:50.221Z,9.48
2018-04-18T02:43:18.641Z,9.40
2018-04-18T02:45:47.779Z,9.56
2018-04-18T02:48:16.195Z,9.85
2018-04-18T02:50:44.593Z,9.82
2018-04-18T02:53:13.733Z,9.64
2018-04-18T02:55:42.113Z,9.60
2018-04-18T02:58:10.490Z,9.63
2018-04-18T03:00:38.871Z,9.68
2018-04-18T03:03:07.251Z,9.71
2018-04-18T03:05:35.710Z,9.64
2018-04-18T03:08:04.851Z,9.61
2018-04-18T03:10:33.225Z,9.51
2018-04-18T03:13:01.605Z,9.50
2018-04-18T03:15:29.994Z,9.41
2018-04-18T03:17:58.388Z,9.43
2018-04-18T03:20:26.743Z,9.33
2018-04-18T03:22:55.124Z,9.33
2018-04-18T03:25:24.278Z,9.30
2018-04-18T03:27:52.645Z,9.29
2018-04-18T03:30:21.033Z,9.32
2018-04-18T03:32:49.393Z,9.38
2018-04-18T03:35:17.763Z,9.39
2018-04-18T03:37:46.177Z,9.26
2018-04-18T03:40:14.534Z,9.23
2018-04-18T03:42:42.917Z,9.22
2018-04-18T03:45:11.288Z,9.14
2018-04-18T03:47:39.750Z,9.06
2018-04-18T03:50:08.383Z,9.01
2018-04-18T03:52:36.768Z,8.98
2018-04-18T03:55:05.143Z,8.98
2018-04-18T03:57:33.522Z,8.94
2018-04-18T04:00:01.886Z,9.18
2018-04-18T04:02:31.054Z,9.23
2018-04-18T04:04:59.497Z,9.13
2018-04-18T04:07:27.969Z,9.18
2018-04-18T04:09:56.368Z,9.22
2018-04-18T04:12:24.749Z,9.11
2018-04-18T04:14:53.137Z,9.12
2018-04-18T04:17:39.374Z,9.07
2018-04-18T04:20:25.433Z,8.88
2018-04-18T04:23:12.167Z,8.76
2018-04-18T04:25:40.533Z,8.67
2018-04-18T04:28:08.939Z,8.61
2018-04-18T04:30:37.466Z,8.53
2018-04-18T04:33:05.847Z,8.53
2018-04-18T04:35:34.298Z,8.55
2018-04-18T04:38:03.453Z,8.67
2018-04-18T04:40:31.860Z,8.58
2018-04-18T04:43:00.313Z,8.59
2018-04-18T04:45:28.701Z,8.56
2018-04-18T04:47:57.066Z,8.54
2018-04-18T04:50:25.426Z,8.56
2018-04-18T04:52:54.627Z,8.57
2018-04-18T04:55:23.778Z,8.62
2018-04-18T04:57:52.147Z,8.61
2018-04-18T05:00:20.525Z,8.61
2018-04-18T05:02:48.914Z,8.62
2018-04-18T05:05:17.286Z,8.64
2018-04-18T05:07:45.673Z,8.65
2018-04-18T05:10:14.043Z,8.69
2018-04-18T05:12:42.439Z,8.72
2018-04-18T05:15:10.822Z,8.76
2018-04-18T05:17:39.255Z,8.85
2018-04-18T05:20:07.626Z,8.93
2018-04-18T05:22:36.004Z,9.06
2018-04-18T05:25:04.391Z,9.17
2018-04-18T05:27:32.790Z,9.25
2018-04-18T05:30:01.949Z,9.36
2018-04-18T05:32:31.161Z,9.50
2018-04-18T05:34:59.564Z,9.71
2018-04-18T05:37:27.982Z,9.96
2018-04-18T05:39:56.506Z,10.22
2018-04-18T05:42:24.915Z,10.47
2018-04-18T05:44:53.324Z,10.66
2018-04-18T05:47:22.531Z,10.96
2018-04-18T05:49:50.965Z,11.30
2018-04-18T05:52:19.416Z,11.61
2018-04-18T05:54:47.831Z,11.83
2018-04-18T05:57:16.233Z,12.18
2018-04-18T05:59:44.641Z,12.48
2018-04-18T06:02:14.750Z,12.73
2018-04-18T06:04:43.139Z,13.05
2018-04-18T06:07:12.293Z,13.27
2018-04-18T06:09:40.710Z,13.59
2018-04-18T06:12:09.169Z,13.79
2018-04-18T06:14:37.620Z,14.04
2018-04-18T06:17:06.029Z,14.43
2018-04-18T06:19:34.430Z,14.63
2018-04-18T06:22:02.819Z,14.82
2018-04-18T06:24:31.225Z,15.53
2018-04-18T06:26:59.637Z,16.11
2018-04-18T06:29:28.009Z,16.34
2018-04-18T06:31:57.176Z,16.51
2018-04-18T06:34:25.589Z,16.87
2018-04-18T06:36:54.774Z,17.23
2018-04-18T06:39:23.197Z,17.44
2018-04-18T06:41:51.593Z,17.69
2018-04-18T06:44:19.989Z,17.85
2018-04-18T06:46:48.371Z,17.83
2018-04-18T06:49:16.757Z,18.27
2018-04-18T06:51:45.170Z,18.43
2018-04-18T06:54:13.559Z,19.27
2018-04-18T06:56:42.769Z,18.87
2018-04-18T06:59:11.934Z,19.74
2018-04-18T07:01:40.317Z,20.03
2018-04-18T07:04:09.477Z,21.49
2018-04-18T07:06:37.858Z,21.48
2018-04-18T07:09:06.973Z,21.89
2018-04-18T07:11:35.369Z,21.95
2018-04-18T07:14:03.769Z,22.28
2018-04-18T07:16:32.159Z,22.53
2018-04-18T07:19:00.586Z,22.55
2018-04-18T07:21:29.742Z,22.78
2018-04-18T07:23:58.176Z,22.81
2018-04-18T07:26:26.560Z,23.13
2018-04-18T07:28:54.949Z,23.40
2018-04-18T07:31:23.337Z,23.19
2018-04-18T07:33:51.795Z,23.30
2018-04-18T07:36:20.967Z,23.95
2018-04-18T07:38:49.353Z,25.20
2018-04-18T07:41:17.773Z,25.94
2018-04-18T07:43:46.946Z,25.38
2018-04-18T07:46:15.372Z,25.36
2018-04-18T07:48:43.759Z,25.86
2018-04-18T07:51:12.157Z,24.58
2018-04-18T07:53:40.549Z,24.76
2018-04-18T07:56:09.737Z,25.37
2018-04-18T07:58:38.121Z,24.87
2018-04-18T08:01:06.510Z,25.30
2018-04-18T08:03:34.946Z,24.89
2018-04-18T08:06:04.182Z,26.90
2018-04-18T08:08:32.665Z,26.88
2018-04-18T08:11:01.034Z,26.41
2018-04-18T08:13:29.409Z,27.42
2018-04-18T08:15:58.599Z,27.54
2018-04-18T08:18:27.762Z,27.38
2018-04-18T08:20:56.153Z,27.50
2018-04-18T08:23:24.530Z,27.27
2018-04-18T08:25:52.935Z,27.94
2018-04-18T08:28:21.342Z,27.05
2018-04-18T08:30:50.488Z,27.01
2018-04-18T08:33:18.887Z,27.33
2018-04-18T08:35:47.307Z,28.12
2018-04-18T08:38:15.718Z,28.11
2018-04-18T08:40:44.102Z,26.86
2018-04-18T08:43:12.478Z,27.18
2018-04-18T08:45:40.859Z,28.09
2018-04-18T08:48:09.268Z,26.87
2018-04-18T08:50:37.705Z,27.49
2018-04-18T08:53:06.838Z,28.51
2018-04-18T08:55:35.306Z,27.88
2018-04-18T08:58:03.802Z,28.90
2018-04-18T09:00:32.204Z,28.80
2018-04-18T09:03:00.584Z,28.71
2018-04-18T09:05:29.038Z,27.63
2018-04-18T09:07:57.438Z,29.59
2018-04-18T09:10:25.872Z,29.60
2018-04-18T09:12:54.282Z,28.51
2018-04-18T09:15:23.707Z,31.21
2018-04-18T09:17:52.134Z,30.44
2018-04-18T09:20:20.677Z,27.67
2018-04-18T09:22:49.074Z,29.63
2018-04-18T09:25:17.481Z,29.67
2018-04-18T09:27:45.877Z,27.66
2018-04-18T09:30:14.285Z,28.80
2018-04-18T09:32:43.459Z,30.13
2018-04-18T09:35:11.872Z,28.91
2018-04-18T09:37:41.115Z,27.66
2018-04-18T09:40:09.497Z,30.33
2018-04-18T09:42:37.915Z,30.84
2018-04-18T09:45:06.384Z,28.99
2018-04-18T09:47:34.734Z,29.69
2018-04-18T09:50:03.120Z,30.03
2018-04-18T09:52:31.573Z,31.18
2018-04-18T09:55:00.722Z,30.68
2018-04-18T09:57:29.129Z,30.85
2018-04-18T09:59:57.533Z,32.11
2018-04-18T10:02:29.394Z,30.95
2018-04-18T10:05:03.074Z,30.73
2018-04-18T10:07:31.515Z,30.62
2018-04-18T10:09:59.905Z,31.77
2018-04-18T10:12:28.366Z,30.40
2018-04-18T10:14:57.593Z,30.50
2018-04-18T10:17:25.977Z,29.48
2018-04-18T10:19:54.377Z,29.33
2018-04-18T10:22:22.762Z,30.35
2018-04-18T10:24:51.188Z,29.64
2018-04-18T10:27:20.353Z,28.72
2018-04-18T10:29:48.773Z,30.38
2018-04-18T10:32:17.161Z,31.35
2018-04-18T10:34:46.542Z,30.37
2018-04-18T10:37:15.687Z,31.33
2018-04-18T10:39:44.095Z,30.74
2018-04-18T10:42:12.533Z,31.07
2018-04-18T10:44:40.913Z,29.57
2018-04-18T10:47:09.297Z,29.27
2018-04-18T10:49:37.769Z,30.01
2018-04-18T10:52:06.277Z,30.56
2018-04-18T10:54:35.481Z,30.70
2018-04-18T10:57:03.862Z,31.44
2018-04-18T10:59:33.018Z,31.51
2018-04-18T11:02:01.420Z,31.68
2018-04-18T11:04:29.820Z,30.67
2018-04-18T11:06:59.013Z,30.86
2018-04-18T11:09:27.416Z,29.17
2018-04-18T11:11:56.600Z,30.76
2018-04-18T11:14:24.999Z,30.64
2018-04-18T11:16:54.147Z,32.02
2018-04-18T11:19:22.550Z,30.65
2018-04-18T11:21:51.044Z,30.94
2018-04-18T11:24:19.498Z,31.97
2018-04-18T11:26:47.915Z,31.64
2018-04-18T11:29:16.316Z,30.71
2018-04-18T11:31:45.482Z,30.85
2018-04-18T11:34:13.948Z,31.01
2018-04-18T11:36:42.356Z,30.65
2018-04-18T11:39:10.777Z,31.52
2018-04-18T11:41:39.925Z,30.58
2018-04-18T11:44:08.389Z,30.94
2018-04-18T11:46:36.781Z,30.80
2018-04-18T11:49:05.199Z,31.59
2018-04-18T11:51:33.591Z,30.44
2018-04-18T11:54:02.003Z,30.42
2018-04-18T11:56:31.169Z,30.44
2018-04-18T11:58:59.626Z,30.24
2018-04-18T12:01:28.038Z,30.69
2018-04-18T12:03:56.416Z,31.37
2018-04-18T12:06:24.817Z,30.59
2018-04-18T12:08:53.210Z,30.68
2018-04-18T12:11:21.681Z,31.31
2018-04-18T12:13:50.085Z,31.04
2018-04-18T12:16:19.242Z,30.70
2018-04-18T12:18:47.659Z,30.69
2018-04-18T12:21:16.055Z,30.75
2018-04-18T12:23:45.236Z,30.23
2018-04-18T12:26:13.622Z,31.34
2018-04-18T12:28:42.059Z,30.60
2018-04-18T12:31:10.459Z,30.35
2018-04-18T12:33:38.893Z,30.96
2018-04-18T12:36:08.098Z,30.69
2018-04-18T12:38:37.281Z,30.03
2018-04-18T12:41:05.706Z,30.24
2018-04-18T12:43:34.094Z,29.93
2018-04-18T12:46:02.527Z,30.41
2018-04-18T12:48:30.922Z,30.46
2018-04-18T12:51:00.239Z,30.16
2018-04-18T12:53:29.475Z,30.32
2018-04-18T12:55:57.936Z,30.99
2018-04-18T12:58:26.361Z,30.41
2018-04-18T13:00:54.755Z,30.89
2018-04-18T13:03:23.165Z,31.38
2018-04-18T13:05:52.337Z,30.89
2018-04-18T13:08:20.729Z,30.98
2018-04-18T13:10:49.114Z,30.51
2018-04-18T13:13:17.528Z,30.57
2018-04-18T13:15:46.055Z,30.35
2018-04-18T13:18:14.446Z,31.21
2018-04-18T13:20:42.922Z,31.11
2018-04-18T13:23:11.316Z,31.46
2018-04-18T13:25:40.485Z,31.41
2018-04-18T13:28:08.872Z,31.74
2018-04-18T13:30:37.289Z,31.30
2018-04-18T13:33:05.681Z,31.74
2018-04-18T13:35:34.062Z,31.71
2018-04-18T13:38:02.483Z,31.45
2018-04-18T13:40:31.649Z,31.95
2018-04-18T13:43:00.765Z,32.87
2018-04-18T13:45:29.189Z,32.32
2018-04-18T13:47:57.665Z,31.73
2018-04-18T13:50:26.015Z,32.68
2018-04-18T13:52:54.431Z,32.05
2018-04-18T13:55:22.921Z,31.64
2018-04-18T13:57:51.324Z,31.77
2018-04-18T14:00:19.710Z,31.42
2018-04-18T14:02:48.101Z,31.21
2018-04-18T14:05:16.592Z,30.97
2018-04-18T14:07:45.045Z,31.32
2018-04-18T14:10:13.430Z,32.37
2018-04-18T14:12:41.851Z,31.95
2018-04-18T14:15:11.136Z,32.17
2018-04-18T14:17:39.522Z,31.53
2018-04-18T14:20:08.198Z,30.16
2018-04-18T14:22:36.626Z,31.33
2018-04-18T14:25:05.038Z,31.37
2018-04-18T14:27:34.185Z,30.80
2018-04-18T14:30:02.570Z,31.07
2018-04-18T14:32:30.954Z,33.87
2018-04-18T14:34:59.469Z,32.00
2018-04-18T14:37:27.881Z,33.12
2018-04-18T14:39:56.289Z,31.47
2018-04-18T14:42:24.699Z,32.60
2018-04-18T14:44:53.104Z,32.89
2018-04-18T14:47:21.507Z,32.62
2018-04-18T14:49:50.722Z,32.81
2018-04-18T14:52:19.174Z,32.74
2018-04-18T14:54:47.573Z,32.49
2018-04-18T14:57:16.761Z,32.08
2018-04-18T14:59:45.150Z,33.53
2018-04-18T15:02:14.330Z,34.68
2018-04-18T15:04:42.740Z,35.05
2018-04-18T15:07:11.929Z,33.13
2018-04-18T15:09:40.354Z,33.26
2018-04-18T15:12:08.765Z,33.38
2018-04-18T15:14:37.180Z,31.92
2018-04-18T15:17:05.591Z,32.45
2018-04-18T15:19:33.989Z,33.59
2018-04-18T15:22:02.401Z,33.89
2018-04-18T15:24:31.597Z,33.62
2018-04-18T15:26:59.991Z,33.23
2018-04-18T15:29:28.371Z,32.45
2018-04-18T15:31:56.751Z,32.75
2018-04-18T15:34:25.225Z,32.62
2018-04-18T15:36:53.679Z,32.14
2018-04-18T15:39:22.878Z,31.27
2018-04-18T15:41:52.030Z,31.24
2018-04-18T15:44:20.406Z,32.21
2018-04-18T15:46:48.785Z,31.91
2018-04-18T15:49:17.174Z,32.72
2018-04-18T15:51:45.572Z,33.26
2018-04-18T15:54:14.086Z,32.11
2018-04-18T15:56:42.553Z,31.10
2018-04-18T15:59:10.953Z,31.25
2018-04-18T16:01:40.125Z,30.69
2018-04-18T16:04:08.556Z,31.32
2018-04-18T16:06:36.977Z,31.75
2018-04-18T16:09:05.346Z,31.93
2018-04-18T16:11:33.787Z,30.93
2018-04-18T16:14:02.209Z,31.35
2018-04-18T16:16:30.601Z,31.25
2018-04-18T16:18:59.009Z,31.69
2018-04-18T16:21:27.422Z,31.35
2018-04-18T16:23:55.816Z,31.46
2018-04-18T16:26:25.059Z,30.79
2018-04-18T16:28:53.470Z,31.41
2018-04-18T16:31:21.859Z,30.35
2018-04-18T16:33:50.249Z,30.07
2018-04-18T16:36:18.658Z,30.30
2018-04-18T16:38:47.854Z,29.76
2018-04-18T16:41:17.017Z,29.58
2018-04-18T16:43:45.414Z,28.97
2018-04-18T16:46:13.951Z,28.11
2018-04-18T16:48:42.445Z,28.12
2018-04-18T16:51:10.846Z,27.62
2018-04-18T16:53:39.223Z,27.39
2018-04-18T16:56:07.622Z,27.75
2018-04-18T16:58:36.058Z,27.55
2018-04-18T17:01:04.664Z,27.26
2018-04-18T17:03:33.061Z,26.96
2018-04-18T17:06:01.453Z,26.89
2018-04-18T17:08:30.597Z,27.24
2018-04-18T17:10:59.742Z,27.16
2018-04-18T17:13:28.175Z,27.12
2018-04-18T17:15:56.549Z,27.07
2018-04-18T17:18:24.976Z,27.01
2018-04-18T17:20:53.467Z,26.76
2018-04-18T17:23:21.930Z,26.71
2018-04-18T17:25:51.150Z,26.55
2018-04-18T17:28:19.540Z,26.53
2018-04-18T17:30:47.982Z,26.49
2018-04-18T17:33:16.399Z,26.37
2018-04-18T17:35:44.843Z,26.35
2018-04-18T17:38:13.219Z,26.30
2018-04-18T17:40:41.628Z,26.23
2018-04-18T17:43:10.786Z,26.11
2018-04-18T17:45:39.195Z,25.85
2018-04-18T17:48:07.590Z,25.85
2018-04-18T17:50:36.773Z,25.81
2018-04-18T17:53:05.146Z,25.76
2018-04-18T17:55:33.521Z,25.70
2018-04-18T17:58:01.936Z,25.32
2018-04-18T18:00:30.357Z,25.10
2018-04-18T18:02:58.757Z,24.94
2018-04-18T18:05:27.143Z,24.88
2018-04-18T18:07:55.558Z,24.44
2018-04-18T18:10:23.921Z,24.15
2018-04-18T18:12:52.319Z,23.83
2018-04-18T18:15:20.802Z,23.56
2018-04-18T18:17:49.223Z,23.40
2018-04-18T18:20:18.392Z,23.20
2018-04-18T18:22:46.774Z,22.90
2018-04-18T18:25:15.162Z,22.68
2018-04-18T18:27:43.552Z,22.33
2018-04-18T18:30:11.954Z,22.07
2018-04-18T18:32:41.154Z,21.93
2018-04-18T18:35:10.298Z,21.89
2018-04-18T18:37:38.693Z,21.61
2018-04-18T18:40:07.093Z,21.34
2018-04-18T18:42:35.490Z,21.13
2018-04-18T18:45:03.990Z,20.86
2018-04-18T18:47:33.158Z,20.66
2018-04-18T18:50:01.542Z,20.43
2018-04-18T18:52:30.092Z,20.38
2018-04-18T18:54:59.492Z,20.08
2018-04-18T18:57:27.919Z,19.94
2018-04-18T18:59:56.336Z,19.76
2018-04-18T19:02:24.702Z,19.66
2018-04-18T19:04:53.093Z,19.51
2018-04-18T19:07:21.484Z,19.33
2018-04-18T19:09:50.656Z,19.17
2018-04-18T19:12:19.207Z,19.11
2018-04-18T19:14:47.613Z,18.91
2018-04-18T19:17:16.000Z,18.69
2018-04-18T19:19:44.428Z,18.56
2018-04-18T19:22:13.585Z,18.40
2018-04-18T19:24:41.974Z,18.27
2018-04-18T19:27:10.395Z,18.19
2018-04-18T19:29:39.570Z,18.06
2018-04-18T19:32:07.958Z,17.92
2018-04-18T19:34:36.394Z,17.82
2018-04-18T19:37:04.812Z,17.73
2018-04-18T19:39:33.216Z,17.59
2018-04-18T19:42:01.622Z,17.51
2018-04-18T19:44:30.787Z,17.42
2018-04-18T19:46:59.203Z,17.37
2018-04-18T19:49:29.370Z,17.29
2018-04-18T19:51:57.773Z,17.22
2018-04-18T19:54:26.236Z,17.15
2018-04-18T19:56:54.623Z,17.05
2018-04-18T19:59:23.040Z,17.11
2018-04-18T20:01:51.439Z,17.01
2018-04-18T20:04:20.610Z,16.95
2018-04-18T20:06:48.991Z,16.84
2018-04-18T20:09:17.389Z,16.78
2018-04-18T20:11:45.777Z,16.74
2018-04-18T20:14:14.934Z,16.71
2018-04-18T20:16:43.370Z,16.60
2018-04-18T20:19:11.732Z,16.55
2018-04-18T20:21:40.153Z,16.48
2018-04-18T20:24:08.565Z,16.41
2018-04-18T20:26:36.946Z,16.33
2018-04-18T20:29:05.393Z,16.21
2018-04-18T20:31:34.598Z,16.15
2018-04-18T20:34:03.746Z,16.09
2018-04-18T20:36:36.976Z,16.00
2018-04-18T20:39:05.363Z,15.96
2018-04-18T20:41:34.535Z,15.90
2018-04-18T20:44:02.947Z,15.87
2018-04-18T20:46:32.089Z,15.79
2018-04-18T20:49:00.487Z,15.80
2018-04-18T20:51:28.908Z,15.69
2018-04-18T20:53:57.294Z,15.63
2018-04-18T20:56:26.474Z,15.61
2018-04-18T20:58:54.862Z,15.57
2018-04-18T21:01:23.272Z,15.49
2018-04-18T21:03:52.431Z,15.44
2018-04-18T21:06:20.862Z,15.42
2018-04-18T21:08:50.086Z,15.39
2018-04-18T21:11:18.487Z,15.37
2018-04-18T21:13:46.929Z,15.37
2018-04-18T21:16:15.270Z,15.31
2018-04-18T21:18:43.681Z,15.27
2018-04-18T21:21:12.067Z,15.15
2018-04-18T21:23:40.555Z,15.07
2018-04-18T21:26:09.850Z,15.01
2018-04-18T21:28:38.246Z,14.95
2018-04-18T21:31:07.450Z,14.90
2018-04-18T21:33:36.688Z,14.83
2018-04-18T21:36:05.127Z,14.83
2018-04-18T21:38:34.284Z,14.77
2018-04-18T21:41:02.681Z,14.73
2018-04-18T21:43:31.090Z,14.65
2018-04-18T21:45:59.498Z,14.65
2018-04-18T21:48:28.686Z,14.56
2018-04-18T21:50:57.881Z,14.49
2018-04-18T21:53:27.076Z,14.50
2018-04-18T21:55:55.458Z,14.42
2018-04-18T21:58:23.900Z,14.37
2018-04-18T22:00:52.312Z,14.28
2018-04-18T22:03:22.312Z,14.21
2018-04-18T22:05:50.718Z,14.16
2018-04-18T22:08:19.104Z,14.08
2018-04-18T22:10:47.498Z,14.09
2018-04-18T22:13:15.937Z,14.04
2018-04-18T22:15:44.334Z,13.99
2018-04-18T22:18:12.807Z,14.09
2018-04-18T22:20:41.197Z,13.96
2018-04-18T22:23:10.364Z,13.94
2018-04-18T22:25:38.770Z,13.99
2018-04-18T22:28:07.149Z,13.89
2018-04-18T22:30:35.533Z,13.84
2018-04-18T22:33:03.937Z,13.83
2018-04-18T22:35:32.426Z,13.76
2018-04-18T22:38:00.829Z,13.76
2018-04-18T22:40:29.237Z,13.94
2018-04-18T22:42:57.661Z,14.05
2018-04-18T22:45:26.084Z,14.06
2018-04-18T22:47:54.683Z,13.86
2018-04-18T22:50:23.837Z,13.81
2018-04-18T22:52:52.234Z,13.97
2018-04-18T22:55:21.385Z,13.94
2018-04-18T22:57:49.757Z,13.87
2018-04-18T23:00:23.570Z,13.82
2018-04-18T23:02:52.065Z,14.00
2018-04-18T23:05:20.505Z,14.02
2018-04-18T23:07:48.901Z,14.00
2018-04-18T23:10:17.293Z,13.94
2018-04-18T23:12:46.458Z,13.74
2018-04-18T23:15:14.907Z,13.61
2018-04-18T23:17:43.306Z,13.49
2018-04-18T23:20:12.628Z,13.38
2018-04-18T23:22:41.020Z,13.29
2018-04-18T23:25:09.401Z,13.18
2018-04-18T23:27:38.565Z,13.11
2018-04-18T23:30:06.966Z,13.01
2018-04-18T23:32:35.377Z,12.97
2018-04-18T23:35:03.797Z,12.91
2018-04-18T23:37:32.935Z,12.89
2018-04-18T23:40:01.354Z,12.83
2018-04-18T23:42:29.730Z,12.79
2018-04-18T23:44:58.934Z,12.82
2018-04-18T23:47:27.315Z,12.77
2018-04-18T23:49:55.697Z,12.69
2018-04-18T23:52:24.085Z,12.64
2018-04-18T23:54:52.490Z,12.60
2018-04-18T23:57:21.641Z,12.58
2018-04-18T23:59:50.763Z,12.53
